Elko Regional Airport
KEKO : now visible

Airfield :











YOU CAN JOIN US ON...

 
LOGIN :

Register | Disclaimer

   EN    FR    IT 

 









Legend :    VFR   Marginal VFR   IFR   Intensive IFR   Very Intensive IFR
Visi :
Ceiling :
>= 8 km
>= 3000ft
5 to 8 km
1000 to 3000 ft
1500m to 5 km
500 to 1000 ft
800 to 1500m
200 to 500 ft
< 800m
< 200 ft
Symbols :   Thunderstorms  Fog  Heavy snow  Heavy precipitations  Wind > 20 kt






- Airport Elevation : 5140 ft
- IATA code : EKO


KEKO - Elko Regional

CURRENT METAR :
  • 161256Z AUTO 00000KT 10SM CLR M07/M11 A3030 RMK AO2 SLP301 T10671106 $

EXPIRED METARs :
  • 161156Z AUTO 00000KT 10SM CLR M07/M09 A3029 RMK AO2 SLP295 60000 T10671094 11039 21078 51016 $
  • 161056Z AUTO 25003KT 10SM CLR M07/M09 A3027 RMK AO2 SLP286 T10671094 $

TAF KEKO
Valid from the 16 at 12:00 until the 17 at 12:00 UTC


161120Z 1612/1712 VRB05KT P6SM SKC



MET'MAP, your aeronautical weather chart ! - Copyright ORBIFLY December 2007 - Disclaimer

ORBIFLY MET'MAP TEAM :

Programming & Development : Alexandra Zaïnal
Concept & original design : Baudouin d'Aumeries
Assistance for programming : Marc-Olivier Méhu
Technical & hardware support : Manuel Goepfert

Contact : metmap@orbifly.com




SOURCES & CREDITS :

   NOAA       Earth
Advisory